sensor_id;sensor_type;location;lat;lon;timestamp;P1;durP1;ratioP1;P2;durP2;ratioP2
14276;SDS011;7222;57.346;12.150;2023-05-16T00:00:26;9.70;;;8.77;;
14276;SDS011;7222;57.346;12.150;2023-05-16T00:02:55;8.90;;;7.97;;
14276;SDS011;7222;57.346;12.150;2023-05-16T00:05:22;8.70;;;7.90;;
14276;SDS011;7222;57.346;12.150;2023-05-16T00:07:49;9.10;;;8.20;;
14276;SDS011;7222;57.346;12.150;2023-05-16T00:10:17;8.27;;;7.57;;
14276;SDS011;7222;57.346;12.150;2023-05-16T00:12:44;8.60;;;7.70;;
14276;SDS011;7222;57.346;12.150;2023-05-16T00:15:16;8.17;;;7.47;;
14276;SDS011;7222;57.346;12.150;2023-05-16T00:17:46;8.10;;;7.40;;
14276;SDS011;7222;57.346;12.150;2023-05-16T00:20:13;6.97;;;6.37;;
14276;SDS011;7222;57.346;12.150;2023-05-16T00:22:47;6.57;;;5.97;;
14276;SDS011;7222;57.346;12.150;2023-05-16T00:25:13;5.67;;;5.20;;
14276;SDS011;7222;57.346;12.150;2023-05-16T00:27:40;5.43;;;5.03;;
14276;SDS011;7222;57.346;12.150;2023-05-16T00:30:08;5.93;;;5.33;;
14276;SDS011;7222;57.346;12.150;2023-05-16T00:32:35;5.50;;;5.10;;
14276;SDS011;7222;57.346;12.150;2023-05-16T00:35:05;6.47;;;5.70;;
14276;SDS011;7222;57.346;12.150;2023-05-16T00:37:34;5.50;;;5.10;;
14276;SDS011;7222;57.346;12.150;2023-05-16T00:40:01;5.40;;;5.00;;
14276;SDS011;7222;57.346;12.150;2023-05-16T00:42:29;5.70;;;5.30;;
14276;SDS011;7222;57.346;12.150;2023-05-16T00:44:56;5.43;;;5.00;;
14276;SDS011;7222;57.346;12.150;2023-05-16T00:47:23;4.60;;;4.30;;
14276;SDS011;7222;57.346;12.150;2023-05-16T00:49:50;5.20;;;4.80;;
14276;SDS011;7222;57.346;12.150;2023-05-16T00:52:18;5.53;;;5.10;;
14276;SDS011;7222;57.346;12.150;2023-05-16T00:54:45;5.47;;;4.90;;
14276;SDS011;7222;57.346;12.150;2023-05-16T00:57:12;5.60;;;5.20;;
14276;SDS011;7222;57.346;12.150;2023-05-16T00:59:40;6.73;;;6.13;;
14276;SDS011;7222;57.346;12.150;2023-05-16T01:02:08;6.23;;;5.63;;
14276;SDS011;7222;57.346;12.150;2023-05-16T01:04:35;5.80;;;5.30;;
14276;SDS011;7222;57.346;12.150;2023-05-16T01:07:02;5.80;;;5.30;;
14276;SDS011;7222;57.346;12.150;2023-05-16T01:09:31;6.37;;;5.87;;
14276;SDS011;7222;57.346;12.150;2023-05-16T01:12:00;5.80;;;5.30;;
14276;SDS011;7222;57.346;12.150;2023-05-16T01:14:43;6.93;;;6.30;;
14276;SDS011;7222;57.346;12.150;2023-05-16T01:17:18;6.00;;;5.50;;
14276;SDS011;7222;57.346;12.150;2023-05-16T01:20:02;7.60;;;6.30;;
14276;SDS011;7222;57.346;12.150;2023-05-16T01:22:39;6.30;;;5.80;;
14276;SDS011;7222;57.346;12.150;2023-05-16T01:25:25;6.40;;;5.90;;
14276;SDS011;7222;57.346;12.150;2023-05-16T01:28:01;6.27;;;5.87;;
14276;SDS011;7222;57.346;12.150;2023-05-16T01:30:32;5.80;;;5.40;;
14276;SDS011;7222;57.346;12.150;2023-05-16T01:33:00;5.80;;;5.30;;
14276;SDS011;7222;57.346;12.150;2023-05-16T01:35:27;6.07;;;5.53;;
14276;SDS011;7222;57.346;12.150;2023-05-16T01:37:56;6.27;;;5.77;;
14276;SDS011;7222;57.346;12.150;2023-05-16T01:40:31;6.20;;;5.60;;
14276;SDS011;7222;57.346;12.150;2023-05-16T01:43:07;6.93;;;5.90;;
14276;SDS011;7222;57.346;12.150;2023-05-16T01:45:39;5.60;;;5.20;;
14276;SDS011;7222;57.346;12.150;2023-05-16T01:48:12;6.03;;;5.57;;
14276;SDS011;7222;57.346;12.150;2023-05-16T01:50:46;6.30;;;5.70;;
14276;SDS011;7222;57.346;12.150;2023-05-16T01:53:18;6.60;;;6.10;;
14276;SDS011;7222;57.346;12.150;2023-05-16T01:55:50;5.60;;;5.20;;
14276;SDS011;7222;57.346;12.150;2023-05-16T01:58:20;6.23;;;5.73;;
14276;SDS011;7222;57.346;12.150;2023-05-16T02:00:51;6.77;;;6.17;;
14276;SDS011;7222;57.346;12.150;2023-05-16T02:03:18;7.13;;;6.53;;
14276;SDS011;7222;57.346;12.150;2023-05-16T02:05:45;7.37;;;6.57;;
14276;SDS011;7222;57.346;12.150;2023-05-16T02:08:12;6.97;;;6.47;;
14276;SDS011;7222;57.346;12.150;2023-05-16T02:10:39;6.70;;;6.10;;
14276;SDS011;7222;57.346;12.150;2023-05-16T02:13:06;6.77;;;6.17;;
14276;SDS011;7222;57.346;12.150;2023-05-16T02:15:35;6.90;;;6.30;;
14276;SDS011;7222;57.346;12.150;2023-05-16T02:18:02;5.77;;;5.37;;
14276;SDS011;7222;57.346;12.150;2023-05-16T02:20:29;7.03;;;6.40;;
14276;SDS011;7222;57.346;12.150;2023-05-16T02:22:57;6.13;;;5.70;;
14276;SDS011;7222;57.346;12.150;2023-05-16T02:25:24;6.00;;;5.60;;
14276;SDS011;7222;57.346;12.150;2023-05-16T02:27:51;5.70;;;5.30;;
14276;SDS011;7222;57.346;12.150;2023-05-16T02:30:18;6.03;;;5.63;;
14276;SDS011;7222;57.346;12.150;2023-05-16T02:32:46;6.37;;;5.87;;
14276;SDS011;7222;57.346;12.150;2023-05-16T02:35:13;6.40;;;5.97;;
14276;SDS011;7222;57.346;12.150;2023-05-16T02:37:40;6.03;;;5.53;;
14276;SDS011;7222;57.346;12.150;2023-05-16T02:40:08;6.40;;;5.90;;
14276;SDS011;7222;57.346;12.150;2023-05-16T02:42:36;7.80;;;7.20;;
14276;SDS011;7222;57.346;12.150;2023-05-16T02:45:03;7.03;;;6.53;;
14276;SDS011;7222;57.346;12.150;2023-05-16T02:47:31;6.67;;;6.13;;
14276;SDS011;7222;57.346;12.150;2023-05-16T02:49:59;6.70;;;6.20;;
14276;SDS011;7222;57.346;12.150;2023-05-16T02:52:26;6.87;;;6.37;;
14276;SDS011;7222;57.346;12.150;2023-05-16T02:54:53;6.57;;;6.07;;
14276;SDS011;7222;57.346;12.150;2023-05-16T02:57:21;7.23;;;6.73;;
14276;SDS011;7222;57.346;12.150;2023-05-16T02:59:48;6.97;;;6.37;;
14276;SDS011;7222;57.346;12.150;2023-05-16T03:02:15;7.27;;;6.43;;
14276;SDS011;7222;57.346;12.150;2023-05-16T03:04:42;7.80;;;7.23;;
14276;SDS011;7222;57.346;12.150;2023-05-16T03:07:11;8.93;;;8.23;;
14276;SDS011;7222;57.346;12.150;2023-05-16T03:09:38;6.10;;;5.70;;
14276;SDS011;7222;57.346;12.150;2023-05-16T03:12:05;7.20;;;6.60;;
14276;SDS011;7222;57.346;12.150;2023-05-16T03:14:32;9.50;;;8.57;;
14276;SDS011;7222;57.346;12.150;2023-05-16T03:16:59;7.53;;;6.93;;
14276;SDS011;7222;57.346;12.150;2023-05-16T03:19:26;7.17;;;6.63;;
14276;SDS011;7222;57.346;12.150;2023-05-16T03:21:52;7.47;;;6.87;;
14276;SDS011;7222;57.346;12.150;2023-05-16T03:24:21;7.13;;;6.50;;
14276;SDS011;7222;57.346;12.150;2023-05-16T03:26:48;7.77;;;7.17;;
14276;SDS011;7222;57.346;12.150;2023-05-16T03:29:15;6.73;;;6.23;;
14276;SDS011;7222;57.346;12.150;2023-05-16T03:31:42;7.30;;;6.70;;
14276;SDS011;7222;57.346;12.150;2023-05-16T03:34:09;6.70;;;6.10;;
14276;SDS011;7222;57.346;12.150;2023-05-16T03:36:37;7.40;;;6.90;;
14276;SDS011;7222;57.346;12.150;2023-05-16T03:39:04;7.87;;;7.27;;
14276;SDS011;7222;57.346;12.150;2023-05-16T03:41:34;7.67;;;7.07;;
14276;SDS011;7222;57.346;12.150;2023-05-16T03:44:00;8.10;;;7.47;;
14276;SDS011;7222;57.346;12.150;2023-05-16T03:46:27;7.10;;;6.57;;
14276;SDS011;7222;57.346;12.150;2023-05-16T03:48:54;8.27;;;7.57;;
14276;SDS011;7222;57.346;12.150;2023-05-16T03:51:21;6.30;;;5.90;;
14276;SDS011;7222;57.346;12.150;2023-05-16T03:53:48;7.70;;;7.10;;
14276;SDS011;7222;57.346;12.150;2023-05-16T03:56:15;7.87;;;7.17;;
14276;SDS011;7222;57.346;12.150;2023-05-16T03:58:44;11.80;;;10.70;;
14276;SDS011;7222;57.346;12.150;2023-05-16T04:01:11;11.57;;;10.47;;
14276;SDS011;7222;57.346;12.150;2023-05-16T04:03:38;10.13;;;9.20;;
14276;SDS011;7222;57.346;12.150;2023-05-16T04:06:05;9.53;;;8.63;;
14276;SDS011;7222;57.346;12.150;2023-05-16T04:08:32;11.27;;;10.27;;
14276;SDS011;7222;57.346;12.150;2023-05-16T04:11:00;8.60;;;7.90;;
14276;SDS011;7222;57.346;12.150;2023-05-16T04:13:27;11.07;;;10.13;;
14276;SDS011;7222;57.346;12.150;2023-05-16T04:15:55;15.27;;;13.00;;
14276;SDS011;7222;57.346;12.150;2023-05-16T04:18:22;16.00;;;13.60;;
14276;SDS011;7222;57.346;12.150;2023-05-16T04:20:48;17.30;;;15.27;;
14276;SDS011;7222;57.346;12.150;2023-05-16T04:23:15;15.93;;;14.27;;
14276;SDS011;7222;57.346;12.150;2023-05-16T04:25:42;19.13;;;17.20;;
14276;SDS011;7222;57.346;12.150;2023-05-16T04:28:10;24.77;;;22.03;;
14276;SDS011;7222;57.346;12.150;2023-05-16T04:30:37;22.70;;;19.23;;
14276;SDS011;7222;57.346;12.150;2023-05-16T04:33:06;22.47;;;20.03;;
14276;SDS011;7222;57.346;12.150;2023-05-16T04:35:33;15.63;;;14.03;;
14276;SDS011;7222;57.346;12.150;2023-05-16T04:38:01;17.43;;;15.60;;
14276;SDS011;7222;57.346;12.150;2023-05-16T04:40:28;15.97;;;14.27;;
14276;SDS011;7222;57.346;12.150;2023-05-16T04:42:55;24.17;;;20.50;;
14276;SDS011;7222;57.346;12.150;2023-05-16T04:45:22;20.27;;;17.13;;
14276;SDS011;7222;57.346;12.150;2023-05-16T04:47:49;29.00;;;22.27;;
14276;SDS011;7222;57.346;12.150;2023-05-16T04:50:18;26.93;;;22.00;;
14276;SDS011;7222;57.346;12.150;2023-05-16T04:52:44;19.67;;;17.67;;
14276;SDS011;7222;57.346;12.150;2023-05-16T04:55:12;29.57;;;24.83;;
14276;SDS011;7222;57.346;12.150;2023-05-16T04:57:39;26.77;;;23.83;;
14276;SDS011;7222;57.346;12.150;2023-05-16T05:00:06;25.40;;;21.57;;
14276;SDS011;7222;57.346;12.150;2023-05-16T05:02:36;26.10;;;19.50;;
14276;SDS011;7222;57.346;12.150;2023-05-16T05:05:03;25.70;;;20.93;;
14276;SDS011;7222;57.346;12.150;2023-05-16T05:07:32;25.23;;;21.67;;
14276;SDS011;7222;57.346;12.150;2023-05-16T05:09:59;30.50;;;23.50;;
14276;SDS011;7222;57.346;12.150;2023-05-16T05:12:26;26.60;;;23.80;;
14276;SDS011;7222;57.346;12.150;2023-05-16T05:14:53;28.73;;;25.50;;
14276;SDS011;7222;57.346;12.150;2023-05-16T05:17:21;20.20;;;18.20;;
14276;SDS011;7222;57.346;12.150;2023-05-16T05:19:48;17.23;;;15.10;;
14276;SDS011;7222;57.346;12.150;2023-05-16T05:22:15;21.93;;;19.63;;
14276;SDS011;7222;57.346;12.150;2023-05-16T05:24:43;21.03;;;18.83;;
14276;SDS011;7222;57.346;12.150;2023-05-16T05:27:11;19.93;;;17.67;;
14276;SDS011;7222;57.346;12.150;2023-05-16T05:29:38;18.20;;;16.33;;
14276;SDS011;7222;57.346;12.150;2023-05-16T05:32:05;21.10;;;19.20;;
14276;SDS011;7222;57.346;12.150;2023-05-16T05:34:32;18.53;;;15.97;;
14276;SDS011;7222;57.346;12.150;2023-05-16T05:36:59;17.40;;;15.70;;
14276;SDS011;7222;57.346;12.150;2023-05-16T05:39:26;15.33;;;13.67;;
14276;SDS011;7222;57.346;12.150;2023-05-16T05:41:54;17.83;;;15.93;;
14276;SDS011;7222;57.346;12.150;2023-05-16T05:44:21;15.13;;;13.73;;
14276;SDS011;7222;57.346;12.150;2023-05-16T05:46:48;15.70;;;14.20;;
14276;SDS011;7222;57.346;12.150;2023-05-16T05:49:15;17.53;;;16.00;;
14276;SDS011;7222;57.346;12.150;2023-05-16T05:51:42;13.90;;;12.50;;
14276;SDS011;7222;57.346;12.150;2023-05-16T05:54:09;14.63;;;12.90;;
14276;SDS011;7222;57.346;12.150;2023-05-16T05:56:36;12.97;;;11.13;;
14276;SDS011;7222;57.346;12.150;2023-05-16T05:59:04;12.73;;;11.43;;
14276;SDS011;7222;57.346;12.150;2023-05-16T06:01:31;13.83;;;9.63;;
14276;SDS011;7222;57.346;12.150;2023-05-16T06:03:58;12.80;;;9.07;;
14276;SDS011;7222;57.346;12.150;2023-05-16T06:06:25;9.30;;;8.40;;
14276;SDS011;7222;57.346;12.150;2023-05-16T06:08:53;9.43;;;8.57;;
14276;SDS011;7222;57.346;12.150;2023-05-16T06:11:20;11.10;;;8.50;;
14276;SDS011;7222;57.346;12.150;2023-05-16T06:13:47;9.23;;;8.30;;
14276;SDS011;7222;57.346;12.150;2023-05-16T06:16:15;9.63;;;8.47;;
14276;SDS011;7222;57.346;12.150;2023-05-16T06:18:42;10.00;;;8.87;;
14276;SDS011;7222;57.346;12.150;2023-05-16T06:21:10;8.93;;;8.03;;
14276;SDS011;7222;57.346;12.150;2023-05-16T06:23:37;12.30;;;9.40;;
14276;SDS011;7222;57.346;12.150;2023-05-16T06:26:04;11.33;;;8.67;;
14276;SDS011;7222;57.346;12.150;2023-05-16T06:28:31;9.13;;;8.13;;
14276;SDS011;7222;57.346;12.150;2023-05-16T06:30:58;10.33;;;8.67;;
14276;SDS011;7222;57.346;12.150;2023-05-16T06:33:28;9.23;;;7.90;;
14276;SDS011;7222;57.346;12.150;2023-05-16T06:35:55;7.77;;;6.90;;
14276;SDS011;7222;57.346;12.150;2023-05-16T06:38:22;8.07;;;7.27;;
14276;SDS011;7222;57.346;12.150;2023-05-16T06:40:48;7.03;;;6.33;;
14276;SDS011;7222;57.346;12.150;2023-05-16T06:43:16;11.67;;;7.13;;
14276;SDS011;7222;57.346;12.150;2023-05-16T06:45:43;10.50;;;7.37;;
14276;SDS011;7222;57.346;12.150;2023-05-16T06:48:10;7.90;;;7.10;;
14276;SDS011;7222;57.346;12.150;2023-05-16T06:50:40;9.53;;;7.43;;
14276;SDS011;7222;57.346;12.150;2023-05-16T06:53:07;9.97;;;8.10;;
14276;SDS011;7222;57.346;12.150;2023-05-16T06:55:36;7.10;;;5.60;;
14276;SDS011;7222;57.346;12.150;2023-05-16T06:58:03;8.23;;;7.33;;
14276;SDS011;7222;57.346;12.150;2023-05-16T07:00:29;9.60;;;6.30;;
14276;SDS011;7222;57.346;12.150;2023-05-16T07:02:57;7.80;;;5.97;;
14276;SDS011;7222;57.346;12.150;2023-05-16T07:05:24;6.87;;;5.67;;
14276;SDS011;7222;57.346;12.150;2023-05-16T07:07:52;8.57;;;5.70;;
14276;SDS011;7222;57.346;12.150;2023-05-16T07:10:20;7.70;;;6.90;;
14276;SDS011;7222;57.346;12.150;2023-05-16T07:12:47;8.20;;;6.47;;
14276;SDS011;7222;57.346;12.150;2023-05-16T07:15:14;8.77;;;7.23;;
14276;SDS011;7222;57.346;12.150;2023-05-16T07:17:41;8.00;;;7.20;;
14276;SDS011;7222;57.346;12.150;2023-05-16T07:20:08;7.40;;;6.23;;
14276;SDS011;7222;57.346;12.150;2023-05-16T07:22:38;9.33;;;6.93;;
14276;SDS011;7222;57.346;12.150;2023-05-16T07:25:08;6.13;;;5.50;;
14276;SDS011;7222;57.346;12.150;2023-05-16T07:27:37;8.17;;;5.60;;
14276;SDS011;7222;57.346;12.150;2023-05-16T07:30:06;7.50;;;6.67;;
14276;SDS011;7222;57.346;12.150;2023-05-16T07:32:34;8.40;;;6.40;;
14276;SDS011;7222;57.346;12.150;2023-05-16T07:35:01;7.10;;;6.40;;
14276;SDS011;7222;57.346;12.150;2023-05-16T07:37:28;5.80;;;5.23;;
14276;SDS011;7222;57.346;12.150;2023-05-16T07:39:55;6.73;;;5.90;;
14276;SDS011;7222;57.346;12.150;2023-05-16T07:42:23;9.33;;;6.23;;
14276;SDS011;7222;57.346;12.150;2023-05-16T07:44:50;9.30;;;6.37;;
14276;SDS011;7222;57.346;12.150;2023-05-16T07:47:18;6.73;;;5.60;;
14276;SDS011;7222;57.346;12.150;2023-05-16T07:49:45;7.37;;;6.60;;
14276;SDS011;7222;57.346;12.150;2023-05-16T07:52:12;5.53;;;4.17;;
14276;SDS011;7222;57.346;12.150;2023-05-16T07:54:39;6.23;;;5.27;;
14276;SDS011;7222;57.346;12.150;2023-05-16T07:57:06;7.30;;;5.50;;
14276;SDS011;7222;57.346;12.150;2023-05-16T07:59:34;6.13;;;4.80;;
14276;SDS011;7222;57.346;12.150;2023-05-16T08:02:01;9.17;;;6.30;;
14276;SDS011;7222;57.346;12.150;2023-05-16T08:04:29;6.63;;;5.30;;
14276;SDS011;7222;57.346;12.150;2023-05-16T08:06:56;6.70;;;5.97;;
14276;SDS011;7222;57.346;12.150;2023-05-16T08:09:23;6.03;;;4.73;;
14276;SDS011;7222;57.346;12.150;2023-05-16T08:11:50;5.73;;;5.10;;
14276;SDS011;7222;57.346;12.150;2023-05-16T08:14:18;7.43;;;5.70;;
14276;SDS011;7222;57.346;12.150;2023-05-16T08:16:46;7.23;;;5.60;;
14276;SDS011;7222;57.346;12.150;2023-05-16T08:19:13;8.10;;;5.03;;
14276;SDS011;7222;57.346;12.150;2023-05-16T08:21:40;7.13;;;4.97;;
14276;SDS011;7222;57.346;12.150;2023-05-16T08:24:07;7.50;;;5.80;;
14276;SDS011;7222;57.346;12.150;2023-05-16T08:26:35;7.13;;;6.00;;
14276;SDS011;7222;57.346;12.150;2023-05-16T08:29:02;5.83;;;5.17;;
14276;SDS011;7222;57.346;12.150;2023-05-16T08:31:30;7.23;;;4.90;;
14276;SDS011;7222;57.346;12.150;2023-05-16T08:33:58;18.50;;;7.77;;
14276;SDS011;7222;57.346;12.150;2023-05-16T08:36:25;7.23;;;5.43;;
14276;SDS011;7222;57.346;12.150;2023-05-16T08:38:53;8.17;;;4.80;;
14276;SDS011;7222;57.346;12.150;2023-05-16T08:41:20;6.63;;;4.37;;
14276;SDS011;7222;57.346;12.150;2023-05-16T08:43:47;6.60;;;5.17;;
14276;SDS011;7222;57.346;12.150;2023-05-16T08:46:15;6.97;;;6.13;;
14276;SDS011;7222;57.346;12.150;2023-05-16T08:48:46;6.83;;;6.17;;
14276;SDS011;7222;57.346;12.150;2023-05-16T08:51:19;6.53;;;5.27;;
14276;SDS011;7222;57.346;12.150;2023-05-16T08:53:49;8.77;;;6.10;;
14276;SDS011;7222;57.346;12.150;2023-05-16T08:56:19;7.60;;;5.80;;
14276;SDS011;7222;57.346;12.150;2023-05-16T08:58:47;7.27;;;5.17;;
14276;SDS011;7222;57.346;12.150;2023-05-16T09:01:15;6.23;;;5.13;;
14276;SDS011;7222;57.346;12.150;2023-05-16T09:03:44;7.17;;;4.00;;
14276;SDS011;7222;57.346;12.150;2023-05-16T09:06:12;7.37;;;4.87;;
14276;SDS011;7222;57.346;12.150;2023-05-16T09:08:41;8.77;;;4.90;;
14276;SDS011;7222;57.346;12.150;2023-05-16T09:11:08;7.17;;;4.67;;
14276;SDS011;7222;57.346;12.150;2023-05-16T09:13:36;10.10;;;5.20;;
14276;SDS011;7222;57.346;12.150;2023-05-16T09:16:06;7.23;;;4.20;;
14276;SDS011;7222;57.346;12.150;2023-05-16T09:18:34;13.47;;;6.07;;
14276;SDS011;7222;57.346;12.150;2023-05-16T09:21:01;9.43;;;5.20;;
14276;SDS011;7222;57.346;12.150;2023-05-16T09:23:28;9.33;;;5.33;;
14276;SDS011;7222;57.346;12.150;2023-05-16T09:25:57;8.20;;;5.23;;
14276;SDS011;7222;57.346;12.150;2023-05-16T09:28:24;8.53;;;5.50;;
14276;SDS011;7222;57.346;12.150;2023-05-16T09:30:51;8.00;;;4.90;;
14276;SDS011;7222;57.346;12.150;2023-05-16T09:33:21;9.43;;;4.20;;
14276;SDS011;7222;57.346;12.150;2023-05-16T09:35:53;8.17;;;5.00;;
14276;SDS011;7222;57.346;12.150;2023-05-16T09:38:21;7.50;;;4.87;;
14276;SDS011;7222;57.346;12.150;2023-05-16T09:40:49;8.47;;;5.03;;
14276;SDS011;7222;57.346;12.150;2023-05-16T09:43:19;7.67;;;4.70;;
14276;SDS011;7222;57.346;12.150;2023-05-16T09:45:48;9.67;;;5.00;;
14276;SDS011;7222;57.346;12.150;2023-05-16T09:48:16;8.07;;;5.23;;
14276;SDS011;7222;57.346;12.150;2023-05-16T09:50:45;6.53;;;4.17;;
14276;SDS011;7222;57.346;12.150;2023-05-16T09:53:13;9.60;;;5.60;;
14276;SDS011;7222;57.346;12.150;2023-05-16T09:55:41;9.47;;;5.10;;
14276;SDS011;7222;57.346;12.150;2023-05-16T09:58:08;14.30;;;7.10;;
14276;SDS011;7222;57.346;12.150;2023-05-16T10:00:37;8.27;;;4.53;;
14276;SDS011;7222;57.346;12.150;2023-05-16T10:03:06;9.33;;;5.47;;
14276;SDS011;7222;57.346;12.150;2023-05-16T10:05:33;9.07;;;5.17;;
14276;SDS011;7222;57.346;12.150;2023-05-16T10:08:02;10.23;;;6.10;;
14276;SDS011;7222;57.346;12.150;2023-05-16T10:10:30;11.43;;;6.57;;
14276;SDS011;7222;57.346;12.150;2023-05-16T10:13:01;10.30;;;7.17;;
14276;SDS011;7222;57.346;12.150;2023-05-16T10:15:32;11.20;;;6.30;;
14276;SDS011;7222;57.346;12.150;2023-05-16T10:18:03;7.70;;;6.07;;
14276;SDS011;7222;57.346;12.150;2023-05-16T10:20:36;11.33;;;7.47;;
14276;SDS011;7222;57.346;12.150;2023-05-16T10:23:04;11.97;;;7.27;;
14276;SDS011;7222;57.346;12.150;2023-05-16T10:25:33;9.23;;;5.53;;
14276;SDS011;7222;57.346;12.150;2023-05-16T10:28:04;11.57;;;6.13;;
14276;SDS011;7222;57.346;12.150;2023-05-16T10:30:32;10.40;;;7.17;;
14276;SDS011;7222;57.346;12.150;2023-05-16T10:33:00;8.93;;;6.33;;
14276;SDS011;7222;57.346;12.150;2023-05-16T10:35:28;11.47;;;6.90;;
14276;SDS011;7222;57.346;12.150;2023-05-16T10:37:56;9.23;;;5.90;;
14276;SDS011;7222;57.346;12.150;2023-05-16T10:40:24;9.87;;;5.50;;
14276;SDS011;7222;57.346;12.150;2023-05-16T10:42:54;9.37;;;5.90;;
14276;SDS011;7222;57.346;12.150;2023-05-16T10:45:22;8.73;;;6.13;;
14276;SDS011;7222;57.346;12.150;2023-05-16T10:47:50;8.47;;;6.87;;
14276;SDS011;7222;57.346;12.150;2023-05-16T10:50:35;9.10;;;6.90;;
14276;SDS011;7222;57.346;12.150;2023-05-16T10:53:13;9.03;;;7.53;;
14276;SDS011;7222;57.346;12.150;2023-05-16T10:56:03;12.20;;;6.93;;
14276;SDS011;7222;57.346;12.150;2023-05-16T10:58:41;8.80;;;5.83;;
14276;SDS011;7222;57.346;12.150;2023-05-16T11:04:02;9.83;;;7.13;;
14276;SDS011;7222;57.346;12.150;2023-05-16T11:06:32;10.40;;;7.67;;
14276;SDS011;7222;57.346;12.150;2023-05-16T11:09:04;9.73;;;6.63;;
14276;SDS011;7222;57.346;12.150;2023-05-16T11:11:40;10.93;;;7.40;;
14276;SDS011;7222;57.346;12.150;2023-05-16T11:14:15;11.43;;;8.93;;
14276;SDS011;7222;57.346;12.150;2023-05-16T11:16:47;9.37;;;6.53;;
14276;SDS011;7222;57.346;12.150;2023-05-16T11:19:17;9.17;;;6.10;;
14276;SDS011;7222;57.346;12.150;2023-05-16T11:22:06;8.60;;;6.53;;
14276;SDS011;7222;57.346;12.150;2023-05-16T11:24:34;9.00;;;6.57;;
14276;SDS011;7222;57.346;12.150;2023-05-16T11:27:02;9.47;;;6.17;;
14276;SDS011;7222;57.346;12.150;2023-05-16T11:29:30;11.07;;;6.90;;
14276;SDS011;7222;57.346;12.150;2023-05-16T11:31:58;22.63;;;8.37;;
14276;SDS011;7222;57.346;12.150;2023-05-16T11:34:26;10.07;;;6.87;;
14276;SDS011;7222;57.346;12.150;2023-05-16T11:36:53;11.13;;;6.70;;
14276;SDS011;7222;57.346;12.150;2023-05-16T11:39:23;10.30;;;6.10;;
14276;SDS011;7222;57.346;12.150;2023-05-16T11:41:50;9.93;;;5.57;;
14276;SDS011;7222;57.346;12.150;2023-05-16T11:44:17;11.80;;;6.37;;
14276;SDS011;7222;57.346;12.150;2023-05-16T11:46:44;10.40;;;7.63;;
14276;SDS011;7222;57.346;12.150;2023-05-16T11:49:11;8.57;;;7.07;;
14276;SDS011;7222;57.346;12.150;2023-05-16T11:51:38;9.23;;;5.93;;
14276;SDS011;7222;57.346;12.150;2023-05-16T11:54:07;6.97;;;4.80;;
14276;SDS011;7222;57.346;12.150;2023-05-16T11:56:37;9.17;;;6.30;;
14276;SDS011;7222;57.346;12.150;2023-05-16T11:59:05;29.03;;;9.43;;
14276;SDS011;7222;57.346;12.150;2023-05-16T12:01:33;10.77;;;6.60;;
14276;SDS011;7222;57.346;12.150;2023-05-16T12:04:01;5.97;;;4.53;;
14276;SDS011;7222;57.346;12.150;2023-05-16T12:06:32;10.93;;;6.63;;
14276;SDS011;7222;57.346;12.150;2023-05-16T12:08:59;9.37;;;6.23;;
14276;SDS011;7222;57.346;12.150;2023-05-16T12:11:31;9.53;;;6.97;;
14276;SDS011;7222;57.346;12.150;2023-05-16T12:14:00;11.40;;;6.87;;
14276;SDS011;7222;57.346;12.150;2023-05-16T12:16:28;6.97;;;4.63;;
14276;SDS011;7222;57.346;12.150;2023-05-16T12:18:55;8.53;;;5.80;;
14276;SDS011;7222;57.346;12.150;2023-05-16T12:21:23;7.10;;;6.40;;
14276;SDS011;7222;57.346;12.150;2023-05-16T12:23:52;9.63;;;5.60;;
14276;SDS011;7222;57.346;12.150;2023-05-16T12:26:23;11.50;;;5.23;;
14276;SDS011;7222;57.346;12.150;2023-05-16T12:28:52;6.20;;;4.33;;
14276;SDS011;7222;57.346;12.150;2023-05-16T12:31:22;7.87;;;6.17;;
14276;SDS011;7222;57.346;12.150;2023-05-16T12:33:51;7.77;;;5.43;;
14276;SDS011;7222;57.346;12.150;2023-05-16T12:36:19;7.17;;;5.30;;
14276;SDS011;7222;57.346;12.150;2023-05-16T12:38:47;9.13;;;6.30;;
14276;SDS011;7222;57.346;12.150;2023-05-16T12:41:19;9.83;;;5.23;;
14276;SDS011;7222;57.346;12.150;2023-05-16T12:43:46;5.93;;;4.40;;
14276;SDS011;7222;57.346;12.150;2023-05-16T12:46:13;24.97;;;9.20;;
14276;SDS011;7222;57.346;12.150;2023-05-16T12:48:42;10.33;;;5.63;;
14276;SDS011;7222;57.346;12.150;2023-05-16T12:51:12;5.70;;;4.13;;
14276;SDS011;7222;57.346;12.150;2023-05-16T12:53:40;7.87;;;5.47;;
14276;SDS011;7222;57.346;12.150;2023-05-16T12:56:09;8.37;;;5.93;;
14276;SDS011;7222;57.346;12.150;2023-05-16T12:58:37;9.77;;;5.53;;
14276;SDS011;7222;57.346;12.150;2023-05-16T13:01:04;6.47;;;4.70;;
14276;SDS011;7222;57.346;12.150;2023-05-16T13:03:32;7.03;;;5.77;;
14276;SDS011;7222;57.346;12.150;2023-05-16T13:06:01;6.30;;;4.17;;
14276;SDS011;7222;57.346;12.150;2023-05-16T13:08:30;7.53;;;6.10;;
14276;SDS011;7222;57.346;12.150;2023-05-16T13:10:57;6.50;;;5.50;;
14276;SDS011;7222;57.346;12.150;2023-05-16T13:13:24;6.77;;;4.30;;
14276;SDS011;7222;57.346;12.150;2023-05-16T13:15:51;6.33;;;5.20;;
14276;SDS011;7222;57.346;12.150;2023-05-16T13:18:18;5.90;;;4.13;;
14276;SDS011;7222;57.346;12.150;2023-05-16T13:20:45;10.63;;;6.67;;
14276;SDS011;7222;57.346;12.150;2023-05-16T13:23:13;9.80;;;5.70;;
14276;SDS011;7222;57.346;12.150;2023-05-16T13:25:40;7.23;;;5.00;;
14276;SDS011;7222;57.346;12.150;2023-05-16T13:28:07;8.33;;;6.03;;
14276;SDS011;7222;57.346;12.150;2023-05-16T13:30:35;4.63;;;4.17;;
14276;SDS011;7222;57.346;12.150;2023-05-16T13:33:02;40.70;;;8.23;;
14276;SDS011;7222;57.346;12.150;2023-05-16T13:35:29;6.37;;;5.17;;
14276;SDS011;7222;57.346;12.150;2023-05-16T13:37:56;9.93;;;4.60;;
14276;SDS011;7222;57.346;12.150;2023-05-16T13:40:25;11.20;;;5.60;;
14276;SDS011;7222;57.346;12.150;2023-05-16T13:42:53;27.57;;;6.40;;
14276;SDS011;7222;57.346;12.150;2023-05-16T13:45:20;8.10;;;4.10;;
14276;SDS011;7222;57.346;12.150;2023-05-16T13:47:47;8.27;;;5.07;;
14276;SDS011;7222;57.346;12.150;2023-05-16T13:50:14;9.43;;;4.87;;
14276;SDS011;7222;57.346;12.150;2023-05-16T13:52:41;8.57;;;5.50;;
14276;SDS011;7222;57.346;12.150;2023-05-16T13:55:09;13.17;;;5.43;;
14276;SDS011;7222;57.346;12.150;2023-05-16T13:57:37;11.37;;;5.90;;
14276;SDS011;7222;57.346;12.150;2023-05-16T14:00:05;11.17;;;4.90;;
14276;SDS011;7222;57.346;12.150;2023-05-16T14:02:36;8.60;;;4.37;;
14276;SDS011;7222;57.346;12.150;2023-05-16T14:05:04;8.40;;;4.53;;
14276;SDS011;7222;57.346;12.150;2023-05-16T14:07:32;7.13;;;4.30;;
14276;SDS011;7222;57.346;12.150;2023-05-16T14:09:59;6.87;;;4.60;;
14276;SDS011;7222;57.346;12.150;2023-05-16T14:12:26;9.63;;;5.17;;
14276;SDS011;7222;57.346;12.150;2023-05-16T14:14:54;9.50;;;5.30;;
14276;SDS011;7222;57.346;12.150;2023-05-16T14:17:21;7.90;;;5.47;;
14276;SDS011;7222;57.346;12.150;2023-05-16T14:19:49;8.73;;;5.40;;
14276;SDS011;7222;57.346;12.150;2023-05-16T14:22:16;8.63;;;5.17;;
14276;SDS011;7222;57.346;12.150;2023-05-16T14:24:44;11.90;;;5.50;;
14276;SDS011;7222;57.346;12.150;2023-05-16T14:27:11;7.47;;;4.17;;
14276;SDS011;7222;57.346;12.150;2023-05-16T14:29:39;8.87;;;5.50;;
14276;SDS011;7222;57.346;12.150;2023-05-16T14:32:08;9.53;;;4.67;;
14276;SDS011;7222;57.346;12.150;2023-05-16T14:34:36;10.10;;;5.67;;
14276;SDS011;7222;57.346;12.150;2023-05-16T14:37:04;5.70;;;3.90;;
14276;SDS011;7222;57.346;12.150;2023-05-16T14:39:31;7.80;;;4.27;;
14276;SDS011;7222;57.346;12.150;2023-05-16T14:41:58;9.40;;;4.70;;
14276;SDS011;7222;57.346;12.150;2023-05-16T14:44:25;8.07;;;4.70;;
14276;SDS011;7222;57.346;12.150;2023-05-16T14:46:52;9.37;;;4.90;;
14276;SDS011;7222;57.346;12.150;2023-05-16T14:49:21;6.80;;;4.80;;
14276;SDS011;7222;57.346;12.150;2023-05-16T14:51:48;6.73;;;4.17;;